createdAt,value
2024-04-08T11:24:59.135Z,28.85
2024-04-08T11:27:27.004Z,29.73
2024-04-08T11:29:57.563Z,34.22
2024-04-08T11:32:25.476Z,31.70
2024-04-08T11:34:55.788Z,38.33
2024-04-08T11:37:23.307Z,29.95
2024-04-08T11:39:53.562Z,28.67
2024-04-08T11:42:23.902Z,22.75
2024-04-08T11:45:05.623Z,20.70
2024-04-08T11:47:35.426Z,17.38
2024-04-08T11:50:05.839Z,21.80
2024-04-08T11:52:34.744Z,18.35
2024-04-08T11:55:06.003Z,19.08
2024-04-08T11:57:36.593Z,15.95
2024-04-08T12:00:08.249Z,15.57
2024-04-08T12:02:36.210Z,15.32
2024-04-08T12:05:06.954Z,13.70
2024-04-08T12:07:34.486Z,13.25
2024-04-08T12:10:05.078Z,11.70
2024-04-08T12:12:32.664Z,9.57
2024-04-08T12:15:06.473Z,10.73
2024-04-08T12:17:34.418Z,10.13
2024-04-08T12:20:05.786Z,11.38
2024-04-08T12:22:33.301Z,5.72
2024-04-08T12:25:04.457Z,7.40
2024-04-08T12:27:32.031Z,6.00
2024-04-08T12:30:04.973Z,6.85
2024-04-08T12:32:35.217Z,6.07
2024-04-08T12:35:02.769Z,5.70
2024-04-08T12:37:32.942Z,7.47
2024-04-08T12:40:00.638Z,4.22
2024-04-08T12:42:30.770Z,4.45
2024-04-08T12:45:11.674Z,4.53
2024-04-08T12:47:45.529Z,5.45
2024-04-08T12:50:13.170Z,4.22
2024-04-08T12:52:47.274Z,4.60
2024-04-08T12:55:15.116Z,4.78
2024-04-08T12:57:45.558Z,6.18
2024-04-08T13:00:15.948Z,4.28
2024-04-08T13:03:05.673Z,8.30
2024-04-08T13:05:33.523Z,6.20
2024-04-08T13:08:15.174Z,5.97
2024-04-08T13:10:43.010Z,5.25
2024-04-08T13:13:13.448Z,5.03
2024-04-08T13:15:43.656Z,5.78
2024-04-08T13:18:13.975Z,7.53
2024-04-08T13:20:41.677Z,4.65
2024-04-08T13:23:12.069Z,2.80
2024-04-08T13:25:43.801Z,5.72
2024-04-08T13:28:17.393Z,6.72
2024-04-08T13:30:47.738Z,5.47
2024-04-08T13:33:18.158Z,3.30
2024-04-08T13:35:46.358Z,5.90
2024-04-08T13:38:16.695Z,4.57
2024-04-08T13:40:44.332Z,6.60
2024-04-08T13:43:26.896Z,5.78
2024-04-08T13:46:00.486Z,4.95
2024-04-08T13:48:28.597Z,4.57
2024-04-08T13:50:59.389Z,8.60
2024-04-08T13:53:27.323Z,4.13
2024-04-08T13:56:01.169Z,5.40
2024-04-08T13:58:29.246Z,3.08
2024-04-08T14:01:05.537Z,5.57
2024-04-08T14:03:34.677Z,2.45
2024-04-08T14:06:05.038Z,2.25
2024-04-08T14:08:32.746Z,6.15
2024-04-08T14:11:03.916Z,4.53
2024-04-08T14:13:34.374Z,3.80
2024-04-08T14:16:05.375Z,4.15
2024-04-08T14:18:35.774Z,3.85
2024-04-08T14:21:03.877Z,2.15
2024-04-08T14:23:34.994Z,4.07
2024-04-08T14:26:02.609Z,2.40
2024-04-08T14:28:32.848Z,4.78
2024-04-08T14:31:00.519Z,5.35
2024-04-08T14:33:33.606Z,3.97
2024-04-08T14:36:01.400Z,3.28
2024-04-08T14:38:47.671Z,5.82
2024-04-08T14:41:22.025Z,2.42
2024-04-08T14:43:59.790Z,2.42
2024-04-08T14:46:34.235Z,4.75
2024-04-08T14:49:04.676Z,3.22
2024-04-08T14:51:40.025Z,3.90
2024-04-08T14:54:09.516Z,2.75
2024-04-08T14:56:40.588Z,4.15
2024-04-08T14:59:08.705Z,3.20
2024-04-08T15:01:38.941Z,4.07
2024-04-08T15:04:10.414Z,2.75
2024-04-08T15:06:40.859Z,2.17
2024-04-08T15:09:09.460Z,3.65
2024-04-08T15:11:39.922Z,6.15
2024-04-08T15:14:08.627Z,3.67
2024-04-08T15:16:38.800Z,1.60
2024-04-08T15:19:10.175Z,5.80
2024-04-08T15:21:40.587Z,4.25
2024-04-08T15:24:10.533Z,3.30
2024-04-08T15:26:41.574Z,2.70
2024-04-08T15:29:09.113Z,3.75
2024-04-08T15:31:39.600Z,3.05
2024-04-08T15:34:10.010Z,5.75
2024-04-08T15:36:40.263Z,3.45
2024-04-08T15:39:09.187Z,3.92
2024-04-08T15:41:40.646Z,3.85
2024-04-08T15:44:08.948Z,3.08
2024-04-08T15:46:39.410Z,3.05
2024-04-08T15:49:12.261Z,5.07
2024-04-08T15:51:42.556Z,4.05
2024-04-08T15:54:27.339Z,3.88
2024-04-08T15:56:55.498Z,3.33
2024-04-08T15:59:26.065Z,4.15
2024-04-08T16:01:53.563Z,5.05
2024-04-08T16:04:28.075Z,9.07
2024-04-08T16:06:56.065Z,4.47
2024-04-08T16:09:26.977Z,6.35
2024-04-08T16:11:58.004Z,4.15
2024-04-08T16:14:25.542Z,6.50
2024-04-08T16:16:55.809Z,6.03
2024-04-08T16:19:26.240Z,8.02
2024-04-08T16:21:56.642Z,5.63
2024-04-08T16:24:24.395Z,8.23
2024-04-08T16:26:54.670Z,5.28
2024-04-08T16:29:22.924Z,7.18
2024-04-08T16:31:53.704Z,5.10
2024-04-08T16:34:21.765Z,7.50
2024-04-08T16:36:54.972Z,6.65
2024-04-08T16:39:22.463Z,8.68
2024-04-08T16:41:54.399Z,6.40
2024-04-08T16:44:22.003Z,6.28
2024-04-08T16:46:54.356Z,6.32
2024-04-08T16:49:23.714Z,8.40
2024-04-08T16:51:56.547Z,5.57
2024-04-08T16:54:24.491Z,8.80
2024-04-08T16:56:54.910Z,6.70
2024-04-08T16:59:22.501Z,7.25
2024-04-08T17:01:52.634Z,9.40
2024-04-08T17:04:20.266Z,6.68
2024-04-08T17:06:52.364Z,7.07
2024-04-08T17:09:26.383Z,4.35
2024-04-08T17:12:00.746Z,6.50
2024-04-08T17:14:28.470Z,7.00
2024-04-08T17:16:59.917Z,8.65
2024-04-08T17:19:27.830Z,4.60
2024-04-08T17:21:58.180Z,6.40
2024-04-08T17:24:28.472Z,5.45
2024-04-08T17:26:58.867Z,4.70
2024-04-08T17:29:26.595Z,5.63
2024-04-08T17:31:56.779Z,8.90
2024-04-08T17:34:24.366Z,6.47
2024-04-08T17:36:54.513Z,6.03
2024-04-08T17:39:22.075Z,7.13
2024-04-08T17:41:54.887Z,10.60
2024-04-08T17:44:22.468Z,8.38
2024-04-08T17:46:52.700Z,11.82
2024-04-08T17:49:20.357Z,7.53
2024-04-08T17:51:52.265Z,10.13
2024-04-08T17:54:20.105Z,11.07
2024-04-08T17:56:50.435Z,6.97
2024-04-08T17:59:20.941Z,7.50
2024-04-08T18:01:51.720Z,6.70
2024-04-08T18:04:20.000Z,8.60
2024-04-08T18:06:52.335Z,9.27
2024-04-08T18:09:20.056Z,8.55
2024-04-08T18:11:54.177Z,9.80
2024-04-08T18:14:32.368Z,10.80
2024-04-08T18:16:59.973Z,6.93
2024-04-08T18:19:32.043Z,7.25
2024-04-08T18:21:59.492Z,10.55
2024-04-08T18:24:29.913Z,10.15
2024-04-08T18:26:58.363Z,9.93
2024-04-08T18:29:31.263Z,5.38
2024-04-08T18:32:09.931Z,12.68
2024-04-08T18:34:40.162Z,7.55
2024-04-08T18:37:07.797Z,9.25
2024-04-08T18:39:38.147Z,7.63
2024-04-08T18:42:08.621Z,8.75
2024-04-08T18:44:38.888Z,9.57
2024-04-08T18:47:09.335Z,12.35
2024-04-08T18:49:39.650Z,8.07
2024-04-08T18:52:07.689Z,10.13
2024-04-08T18:54:41.612Z,6.70
2024-04-08T18:57:10.289Z,11.00
2024-04-08T18:59:40.648Z,9.30
2024-04-08T19:02:11.118Z,7.93
2024-04-08T19:04:41.829Z,10.05
2024-04-08T19:07:09.524Z,12.00
2024-04-08T19:09:39.762Z,14.13
2024-04-08T19:12:07.889Z,9.95
2024-04-08T19:14:38.164Z,14.25
2024-04-08T19:17:05.948Z,10.88
2024-04-08T19:19:39.231Z,10.85
2024-04-08T19:22:06.735Z,10.10
2024-04-08T19:24:37.086Z,16.63
2024-04-08T19:27:05.090Z,13.15
2024-04-08T19:29:35.398Z,17.77
2024-04-08T19:32:03.034Z,14.73
2024-04-08T19:34:33.358Z,12.88
2024-04-08T19:37:03.704Z,16.88
2024-04-08T19:39:34.032Z,19.27
2024-04-08T19:42:01.959Z,23.25
2024-04-08T19:44:32.332Z,29.45
2024-04-08T19:47:00.572Z,33.15
2024-04-08T19:49:31.495Z,31.23
2024-04-08T19:52:03.657Z,36.42
2024-04-08T19:54:34.504Z,37.65
2024-04-08T19:57:02.428Z,45.72
2024-04-08T19:59:32.835Z,52.22
2024-04-08T20:02:00.486Z,54.05
2024-04-08T20:04:31.111Z,53.80
2024-04-08T20:06:58.748Z,55.70
2024-04-08T20:09:31.992Z,59.45
2024-04-08T20:12:01.395Z,61.78
2024-04-08T20:14:31.753Z,60.97
2024-04-08T20:16:59.569Z,60.60
2024-04-08T20:19:31.859Z,61.67
2024-04-08T20:21:59.441Z,62.80
2024-04-08T20:24:32.498Z,62.15
2024-04-08T20:27:00.238Z,61.50
2024-04-08T20:29:30.622Z,62.63
2024-04-08T20:31:58.417Z,62.83
2024-04-08T20:34:28.996Z,62.95
2024-04-08T20:36:56.947Z,63.25
2024-04-08T20:39:28.125Z,62.97
2024-04-08T20:41:58.339Z,62.53
2024-04-08T20:44:28.868Z,61.70
2024-04-08T20:46:59.884Z,63.40
2024-04-08T20:49:30.139Z,65.60
2024-04-08T20:51:58.523Z,62.75
2024-04-08T20:54:29.222Z,65.30
2024-04-08T20:57:00.053Z,66.38
2024-04-08T20:59:33.327Z,68.22
2024-04-08T21:02:00.860Z,64.82
2024-04-08T21:04:31.549Z,63.70
2024-04-08T21:07:02.443Z,67.18
2024-04-08T21:09:30.725Z,65.13
2024-04-08T21:12:04.621Z,67.90
2024-04-08T21:14:32.474Z,70.57
2024-04-08T21:17:03.280Z,67.88
2024-04-08T21:19:31.941Z,73.50
2024-04-08T21:22:02.208Z,69.82
2024-04-08T21:24:30.938Z,68.70
2024-04-08T21:27:03.915Z,69.95
2024-04-08T21:29:31.548Z,68.55
2024-04-08T21:32:01.768Z,72.60
2024-04-08T21:34:29.635Z,70.45
2024-04-08T21:37:00.228Z,70.85
2024-04-08T21:39:27.879Z,66.10
2024-04-08T21:41:58.192Z,70.00
2024-04-08T21:44:28.440Z,68.57
2024-04-08T21:46:58.576Z,68.07
2024-04-08T21:49:26.276Z,70.13
2024-04-08T21:51:56.473Z,77.68
2024-04-08T21:54:24.119Z,66.15
2024-04-08T21:56:54.455Z,68.82
2024-04-08T21:59:22.003Z,67.70
2024-04-08T22:01:54.990Z,73.32
2024-04-08T22:04:22.683Z,91.40
2024-04-08T22:06:52.936Z,63.45
2024-04-08T22:09:20.462Z,57.63
2024-04-08T22:11:50.660Z,58.38
2024-04-08T22:14:18.215Z,58.08
2024-04-08T22:16:48.411Z,62.22
2024-04-08T22:19:18.735Z,59.45
2024-04-08T22:21:48.926Z,58.67
2024-04-08T22:24:16.539Z,57.90
2024-04-08T22:26:48.258Z,56.95
2024-04-08T22:29:15.837Z,60.95
2024-04-08T22:31:46.098Z,57.72
2024-04-08T22:34:13.807Z,58.72
2024-04-08T22:36:46.936Z,57.65
2024-04-08T22:39:14.481Z,56.33
2024-04-08T22:41:52.236Z,60.35
2024-04-08T22:44:21.720Z,58.15
2024-04-08T22:46:51.928Z,57.97
2024-04-08T22:49:21.097Z,58.88
2024-04-08T22:51:53.971Z,61.38
2024-04-08T22:54:21.508Z,57.85
2024-04-08T22:56:51.799Z,59.10
2024-04-08T22:59:19.530Z,59.53
2024-04-08T23:01:49.879Z,56.70
2024-04-08T23:04:17.889Z,53.65
2024-04-08T23:06:48.355Z,55.35
2024-04-08T23:09:18.568Z,54.35
2024-04-08T23:11:48.715Z,55.17
2024-04-08T23:14:16.275Z,55.97
2024-04-08T23:16:46.475Z,54.78
2024-04-08T23:19:14.212Z,56.60
2024-04-08T23:21:44.577Z,57.13
2024-04-08T23:24:12.181Z,56.05
2024-04-08T23:26:45.121Z,53.85
2024-04-08T23:29:12.684Z,55.83
2024-04-08T23:31:44.991Z,54.47
2024-04-08T23:34:13.138Z,53.28
2024-04-08T23:36:43.431Z,56.17
2024-04-08T23:39:12.307Z,53.47
2024-04-08T23:41:45.362Z,52.60
2024-04-08T23:44:12.929Z,51.42
2024-04-08T23:46:43.358Z,50.20
2024-04-08T23:49:11.311Z,49.58
2024-04-08T23:51:42.558Z,52.88
2024-04-08T23:54:10.764Z,49.85
2024-04-08T23:56:41.362Z,51.95
2024-04-08T23:59:11.788Z,51.80
